createdAt,value
2019-04-20T00:02:23.418Z,7.07
2019-04-20T00:04:55.287Z,6.27
2019-04-20T00:07:32.395Z,6.60
2019-04-20T00:10:08.777Z,6.60
2019-04-20T00:12:52.103Z,6.00
2019-04-20T00:15:09.050Z,7.00
2019-04-20T00:17:47.626Z,6.40
2019-04-20T00:20:20.790Z,6.73
2019-04-20T00:23:21.550Z,6.20
2019-04-20T00:26:13.181Z,6.03
2019-04-20T00:28:55.868Z,6.20
2019-04-20T00:31:26.683Z,6.03
2019-04-20T00:33:56.284Z,6.47
2019-04-20T00:36:20.132Z,7.17
2019-04-20T00:38:56.925Z,6.90
2019-04-20T00:41:27.585Z,5.97
2019-04-20T00:44:06.943Z,6.47
2019-04-20T00:46:48.629Z,6.70
2019-04-20T00:49:21.666Z,6.30
2019-04-20T00:52:11.165Z,7.17
2019-04-20T00:54:15.971Z,6.23
2019-04-20T00:56:48.126Z,7.27
2019-04-20T00:59:32.299Z,6.90
2019-04-20T01:02:13.139Z,6.13
2019-04-20T01:04:47.645Z,5.77
2019-04-20T01:07:28.940Z,6.03
2019-04-20T01:10:13.158Z,6.07
2019-04-20T01:12:45.878Z,6.13
2019-04-20T01:15:29.025Z,6.27
2019-04-20T01:17:53.047Z,5.93
2019-04-20T01:20:26.391Z,6.20
2019-04-20T01:23:04.832Z,7.07
2019-04-20T01:25:37.701Z,6.90
2019-04-20T01:28:26.367Z,6.73
2019-04-20T01:30:50.892Z,6.00
2019-04-20T01:33:30.504Z,6.33
2019-04-20T01:36:03.257Z,6.10
2019-04-20T01:38:40.113Z,6.13
2019-04-20T01:40:57.173Z,6.30
2019-04-20T01:43:29.197Z,6.43
2019-04-20T01:46:11.223Z,6.87
2019-04-20T01:48:37.141Z,6.13
2019-04-20T01:51:16.671Z,6.17
2019-04-20T01:54:03.884Z,6.57
2019-04-20T01:56:36.132Z,6.57
2019-04-20T01:59:30.931Z,6.30
2019-04-20T02:02:16.567Z,6.53
2019-04-20T02:04:54.129Z,6.30
2019-04-20T02:07:35.018Z,6.53
2019-04-20T02:10:05.303Z,7.10
2019-04-20T02:12:37.588Z,6.17
2019-04-20T02:15:22.184Z,6.60
2019-04-20T02:17:52.185Z,7.07
2019-04-20T02:20:37.537Z,6.70
2019-04-20T02:23:06.801Z,6.60
2019-04-20T02:25:24.918Z,7.00
2019-04-20T02:28:14.591Z,6.90
2019-04-20T02:31:09.536Z,6.77
2019-04-20T02:33:43.050Z,7.43
2019-04-20T02:44:18.039Z,6.30
2019-04-20T02:46:47.910Z,6.50
2019-04-20T02:51:59.947Z,7.03
2019-04-20T02:54:26.158Z,6.43
2019-04-20T02:59:54.309Z,6.63
2019-04-20T03:01:55.391Z,6.90
2019-04-20T03:04:20.209Z,7.00
2019-04-20T03:07:01.037Z,6.33
2019-04-20T03:09:41.580Z,6.47
2019-04-20T03:12:18.672Z,6.60
2019-04-20T03:14:39.384Z,6.60
2019-04-20T03:17:21.716Z,6.67
2019-04-20T03:19:48.773Z,6.43
2019-04-20T03:22:39.475Z,6.50
2019-04-20T03:25:13.528Z,6.87
2019-04-20T03:27:47.396Z,6.00
2019-04-20T03:35:58.672Z,5.93
2019-04-20T03:38:20.171Z,7.03
2019-04-20T03:40:46.450Z,7.07
2019-04-20T03:43:08.213Z,6.83
2019-04-20T03:45:49.820Z,7.60
2019-04-20T03:48:34.592Z,9.10
2019-04-20T03:51:08.940Z,7.93
2019-04-20T03:53:43.398Z,7.90
2019-04-20T03:56:41.961Z,7.57
2019-04-20T03:59:28.953Z,6.77
2019-04-20T04:02:52.794Z,7.37
2019-04-20T04:05:04.395Z,7.03
2019-04-20T04:07:32.432Z,7.07
2019-04-20T04:10:14.155Z,6.77
2019-04-20T04:13:07.407Z,6.90
2019-04-20T04:15:46.756Z,7.10
2019-04-20T04:18:21.951Z,7.57
2019-04-20T04:20:54.098Z,7.73
2019-04-20T04:23:42.934Z,6.90
2019-04-20T04:26:17.559Z,7.67
2019-04-20T04:28:51.962Z,7.87
2019-04-20T04:31:21.487Z,7.43
2019-04-20T04:34:06.223Z,6.90
2019-04-20T04:36:29.234Z,7.70
2019-04-20T04:39:08.669Z,7.93
2019-04-20T04:41:43.572Z,7.60
2019-04-20T04:44:10.784Z,7.53
2019-04-20T04:46:29.263Z,7.90
2019-04-20T04:49:09.636Z,6.60
2019-04-20T04:51:44.672Z,7.27
2019-04-20T04:54:16.591Z,6.70
2019-04-20T04:56:44.184Z,7.77
2019-04-20T04:59:17.142Z,6.77
2019-04-20T05:01:53.236Z,7.07
2019-04-20T05:05:05.188Z,8.07
2019-04-20T05:07:40.044Z,7.17
2019-04-20T05:10:01.217Z,7.40
2019-04-20T05:12:35.359Z,8.10
2019-04-20T05:15:16.213Z,7.00
2019-04-20T05:18:01.839Z,7.37
2019-04-20T05:20:45.094Z,7.37
2019-04-20T05:23:35.472Z,7.53
2019-04-20T05:26:25.399Z,7.67
2019-04-20T05:28:51.755Z,7.17
2019-04-20T05:31:15.591Z,7.37
2019-04-20T05:34:14.415Z,7.27
2019-04-20T05:36:42.847Z,7.47
2019-04-20T05:39:24.263Z,6.80
2019-04-20T05:41:48.569Z,7.60
2019-04-20T05:44:24.781Z,7.03
2019-04-20T05:47:05.504Z,6.23
2019-04-20T05:49:34.613Z,7.27
2019-04-20T05:52:25.444Z,6.63
2019-04-20T05:57:25.126Z,7.20
2019-04-20T06:00:01.837Z,6.90
2019-04-20T06:02:27.678Z,6.80
2019-04-20T06:05:04.385Z,6.43
2019-04-20T06:07:38.432Z,6.97
2019-04-20T06:10:16.737Z,7.07
2019-04-20T06:12:40.001Z,7.10
2019-04-20T06:15:18.661Z,6.73
2019-04-20T06:18:02.489Z,6.73
2019-04-20T06:20:41.086Z,6.70
2019-04-20T06:23:50.952Z,6.90
2019-04-20T06:26:41.257Z,7.00
2019-04-20T06:28:51.970Z,7.10
2019-04-20T06:31:32.765Z,6.90
2019-04-20T06:36:53.585Z,6.83
2019-04-20T06:39:30.943Z,6.53
2019-04-20T06:42:09.857Z,7.67
2019-04-20T06:44:35.684Z,7.35
2019-04-20T06:49:38.427Z,7.33
2019-04-20T06:52:27.582Z,7.95
2019-04-20T06:55:21.831Z,6.78
2019-04-20T06:57:45.262Z,7.20
2019-04-20T07:00:19.334Z,7.90
2019-04-20T07:03:05.803Z,7.97
2019-04-20T07:05:26.984Z,7.53
2019-04-20T07:08:16.696Z,7.85
2019-04-20T07:10:40.751Z,7.15
2019-04-20T07:13:02.736Z,7.62
2019-04-20T07:15:53.086Z,8.10
2019-04-20T07:18:35.274Z,8.10
2019-04-20T07:21:15.761Z,8.88
2019-04-20T07:23:48.451Z,7.83
2019-04-20T07:26:22.648Z,8.33
2019-04-20T07:29:00.699Z,7.62
2019-04-20T07:31:23.044Z,8.00
2019-04-20T07:34:04.683Z,8.28
2019-04-20T07:36:40.239Z,8.40
2019-04-20T07:39:15.851Z,7.58
2019-04-20T07:41:51.592Z,8.40
2019-04-20T07:44:26.999Z,8.00
2019-04-20T07:49:27.502Z,7.78
2019-04-20T07:51:43.913Z,7.45
2019-04-20T07:54:40.132Z,8.18
2019-04-20T07:57:04.093Z,7.72
2019-04-20T07:59:30.456Z,8.10
2019-04-20T08:02:33.327Z,8.05
2019-04-20T08:05:06.049Z,8.38
2019-04-20T08:07:36.113Z,8.48
2019-04-20T08:10:02.878Z,8.33
2019-04-20T08:12:55.910Z,8.18
2019-04-20T08:15:36.450Z,8.15
2019-04-20T08:17:59.847Z,8.05
2019-04-20T08:20:31.269Z,7.55
2019-04-20T08:23:09.770Z,7.80
2019-04-20T08:25:31.189Z,7.78
2019-04-20T08:28:01.595Z,8.08
2019-04-20T08:31:18.112Z,7.62
2019-04-20T08:34:07.521Z,7.83
2019-04-20T08:36:34.604Z,7.53
2019-04-20T08:41:39.776Z,7.33
2019-04-20T08:44:39.661Z,8.03
2019-04-20T08:47:02.069Z,7.67
2019-04-20T08:49:28.209Z,8.38
2019-04-20T08:52:01.763Z,8.03
2019-04-20T08:54:26.097Z,8.30
2019-04-20T08:56:49.915Z,7.65
2019-04-20T08:59:16.786Z,7.72
2019-04-20T09:01:48.991Z,8.20
2019-04-20T09:04:33.681Z,7.58
2019-04-20T09:07:07.719Z,7.95
2019-04-20T09:09:49.517Z,7.35
2019-04-20T09:12:21.153Z,7.22
2019-04-20T09:14:39.639Z,6.83
2019-04-20T09:17:29.688Z,7.70
2019-04-20T09:20:00.237Z,7.05
2019-04-20T09:22:44.523Z,8.65
2019-04-20T09:25:44.189Z,6.90
2019-04-20T09:28:12.882Z,7.33
2019-04-20T09:30:47.705Z,6.67
2019-04-20T09:34:02.551Z,6.67
2019-04-20T09:36:40.804Z,6.90
2019-04-20T09:39:36.161Z,7.10
2019-04-20T09:42:21.969Z,7.00
2019-04-20T09:44:59.017Z,7.00
2019-04-20T09:47:36.853Z,7.30
2019-04-20T09:50:19.746Z,7.30
2019-04-20T09:52:51.647Z,7.90
2019-04-20T09:55:21.824Z,6.95
2019-04-20T09:58:02.435Z,6.70
2019-04-20T10:00:35.701Z,7.58
2019-04-20T10:02:52.626Z,7.65
2019-04-20T10:05:25.373Z,8.08
2019-04-20T10:08:02.758Z,7.60
2019-04-20T10:10:38.127Z,7.35
2019-04-20T10:13:05.982Z,7.28
2019-04-20T10:15:39.630Z,6.65
2019-04-20T10:18:12.070Z,7.10
2019-04-20T10:20:45.365Z,7.50
2019-04-20T10:23:18.525Z,7.83
2019-04-20T10:25:50.955Z,7.40
2019-04-20T10:28:23.453Z,7.40
2019-04-20T10:30:56.756Z,7.15
2019-04-20T10:33:28.897Z,6.33
2019-04-20T10:36:01.468Z,6.87
2019-04-20T10:38:35.909Z,6.30
2019-04-20T10:41:13.914Z,7.25
2019-04-20T10:43:42.780Z,6.58
2019-04-20T10:46:15.091Z,6.42
2019-04-20T10:48:49.976Z,5.80
2019-04-20T10:51:21.798Z,5.45
2019-04-20T10:53:54.190Z,6.40
2019-04-20T10:56:27.235Z,6.12
2019-04-20T10:58:59.635Z,5.85
2019-04-20T11:01:31.709Z,5.83
2019-04-20T11:04:04.887Z,5.60
2019-04-20T11:06:38.777Z,5.60
2019-04-20T11:09:11.006Z,5.30
2019-04-20T11:11:44.227Z,5.85
2019-04-20T11:14:25.781Z,5.80
2019-04-20T11:16:50.850Z,5.12
2019-04-20T11:19:23.298Z,5.20
2019-04-20T11:21:56.618Z,5.17
2019-04-20T11:24:30.100Z,5.00
2019-04-20T11:27:02.469Z,4.90
2019-04-20T11:29:35.989Z,5.17
2019-04-20T11:32:09.294Z,5.42
2019-04-20T11:34:43.571Z,5.17
2019-04-20T11:37:15.616Z,5.35
2019-04-20T11:39:47.615Z,5.62
2019-04-20T11:42:19.646Z,5.22
2019-04-20T11:44:52.904Z,5.92
2019-04-20T11:47:25.088Z,5.47
2019-04-20T11:49:57.585Z,5.28
2019-04-20T11:52:33.219Z,4.95
2019-04-20T11:55:04.407Z,5.00
2019-04-20T11:57:37.578Z,4.78
2019-04-20T12:00:13.139Z,4.97
2019-04-20T12:03:10.914Z,5.25
2019-04-20T12:05:43.193Z,4.95
2019-04-20T12:08:13.140Z,5.10
2019-04-20T12:10:49.259Z,4.97
2019-04-20T12:13:20.529Z,5.55
2019-04-20T12:15:53.859Z,4.95
2019-04-20T12:18:27.479Z,4.90
2019-04-20T12:21:00.838Z,4.92
2019-04-20T12:23:34.025Z,5.83
2019-04-20T12:26:06.811Z,5.35
2019-04-20T12:28:40.091Z,5.42
2019-04-20T12:31:19.643Z,5.45
2019-04-20T12:33:46.541Z,5.53
2019-04-20T12:36:18.783Z,5.47
2019-04-20T12:38:51.051Z,5.78
2019-04-20T12:41:34.438Z,4.85
2019-04-20T12:43:59.443Z,5.20
2019-04-20T12:46:31.997Z,5.60
2019-04-20T12:49:05.462Z,4.80
2019-04-20T12:51:46.396Z,4.97
2019-04-20T12:54:11.503Z,5.60
2019-04-20T12:56:44.671Z,4.95
2019-04-20T12:59:17.892Z,5.03
2019-04-20T13:01:51.413Z,5.50
2019-04-20T13:04:24.700Z,5.42
2019-04-20T13:06:57.666Z,5.37
2019-04-20T13:09:32.724Z,5.37
2019-04-20T13:12:12.074Z,5.33
2019-04-20T13:15:14.032Z,4.78
2019-04-20T13:17:49.276Z,4.55
2019-04-20T13:20:21.413Z,5.05
2019-04-20T13:22:55.015Z,5.50
2019-04-20T13:25:28.529Z,5.00
2019-04-20T13:28:01.077Z,5.35
2019-04-20T13:30:33.149Z,5.10
2019-04-20T13:33:05.985Z,4.75
2019-04-20T13:35:38.366Z,5.58
2019-04-20T13:38:10.472Z,5.20
2019-04-20T13:40:43.880Z,4.95
2019-04-20T13:43:17.505Z,5.53
2019-04-20T13:45:50.961Z,5.37
2019-04-20T13:48:23.076Z,4.90
2019-04-20T13:50:56.040Z,4.78
2019-04-20T13:53:29.314Z,4.53
2019-04-20T13:56:01.733Z,4.45
2019-04-20T13:58:59.531Z,4.50
2019-04-20T14:01:57.160Z,4.20
2019-04-20T14:04:35.246Z,3.98
2019-04-20T14:07:07.302Z,4.28
2019-04-20T14:09:39.598Z,4.65
2019-04-20T14:12:21.973Z,4.03
2019-04-20T14:14:46.821Z,4.15
2019-04-20T14:17:19.241Z,3.67
2019-04-20T14:19:52.898Z,3.80
2019-04-20T14:22:25.179Z,4.05
2019-04-20T14:24:57.385Z,4.10
2019-04-20T14:27:30.745Z,4.72
2019-04-20T14:30:03.562Z,4.80
2019-04-20T14:32:36.811Z,4.95
2019-04-20T14:35:09.301Z,4.95
2019-04-20T14:37:41.667Z,4.30
2019-04-20T14:40:14.816Z,4.12
2019-04-20T14:42:51.344Z,5.20
2019-04-20T14:45:20.883Z,4.47
2019-04-20T14:47:54.016Z,4.60
2019-04-20T14:50:27.593Z,4.45
2019-04-20T14:52:59.857Z,5.08
2019-04-20T14:55:33.328Z,4.78
2019-04-20T14:58:13.111Z,4.53
2019-04-20T15:00:58.648Z,4.70
2019-04-20T15:03:36.742Z,4.50
2019-04-20T15:06:07.536Z,4.55
2019-04-20T15:08:40.759Z,5.10
2019-04-20T15:11:14.668Z,4.70
2019-04-20T15:13:47.282Z,4.37
2019-04-20T15:16:22.369Z,4.55
2019-04-20T15:19:13.761Z,5.12
2019-04-20T15:21:49.472Z,4.45
2019-04-20T15:24:21.897Z,4.50
2019-04-20T15:26:54.265Z,4.20
2019-04-20T15:29:26.520Z,4.42
2019-04-20T15:31:59.922Z,4.60
2019-04-20T15:34:32.954Z,5.17
2019-04-20T15:37:05.533Z,5.67
2019-04-20T15:39:38.911Z,5.28
2019-04-20T15:42:11.579Z,5.28
2019-04-20T15:44:44.867Z,5.22
2019-04-20T15:47:17.444Z,4.95
2019-04-20T15:49:49.869Z,4.70
2019-04-20T15:52:28.829Z,5.15
2019-04-20T15:55:01.907Z,4.85
2019-04-20T15:57:33.134Z,4.42
2019-04-20T16:00:06.802Z,4.60
2019-04-20T16:03:07.799Z,4.95
2019-04-20T16:05:58.941Z,5.00
2019-04-20T16:08:34.382Z,5.10
2019-04-20T16:11:07.112Z,4.95
2019-04-20T16:14:09.624Z,4.95
2019-04-20T16:16:42.527Z,5.03
2019-04-20T16:19:27.847Z,4.50
2019-04-20T16:21:49.888Z,6.28
2019-04-20T16:24:29.545Z,8.90
2019-04-20T16:27:13.861Z,6.03
2019-04-20T16:29:47.393Z,4.92
2019-04-20T16:32:20.637Z,5.80
2019-04-20T16:34:52.796Z,5.17
2019-04-20T16:37:24.830Z,5.12
2019-04-20T16:39:56.882Z,5.12
2019-04-20T16:42:29.940Z,5.03
2019-04-20T16:45:03.294Z,5.28
2019-04-20T16:47:36.614Z,5.47
2019-04-20T16:50:08.949Z,4.85
2019-04-20T16:52:41.107Z,5.33
2019-04-20T16:55:14.630Z,4.62
2019-04-20T16:57:49.466Z,4.83
2019-04-20T17:00:21.010Z,5.53
2019-04-20T17:02:54.338Z,5.30
2019-04-20T17:05:27.489Z,4.50
2019-04-20T17:08:00.730Z,4.90
2019-04-20T17:10:33.133Z,5.37
2019-04-20T17:13:06.376Z,5.33
2019-04-20T17:15:39.346Z,5.37
2019-04-20T17:18:11.860Z,5.40
2019-04-20T17:20:44.304Z,5.22
2019-04-20T17:23:17.518Z,4.95
2019-04-20T17:25:50.408Z,5.17
2019-04-20T17:28:40.760Z,5.10
2019-04-20T17:31:25.189Z,5.20
2019-04-20T17:34:25.308Z,5.03
2019-04-20T17:36:40.488Z,4.95
2019-04-20T17:39:25.196Z,4.83
2019-04-20T17:42:02.940Z,4.83
2019-04-20T17:44:36.105Z,5.35
2019-04-20T17:47:09.859Z,5.05
2019-04-20T17:49:39.111Z,4.60
2019-04-20T17:52:29.188Z,5.05
2019-04-20T17:54:43.260Z,5.03
2019-04-20T17:57:17.278Z,4.83
2019-04-20T17:59:58.650Z,5.33
2019-04-20T18:02:54.531Z,4.58
2019-04-20T18:05:39.308Z,4.97
2019-04-20T18:08:15.366Z,4.60
2019-04-20T18:10:40.378Z,4.90
2019-04-20T18:13:09.333Z,5.17
2019-04-20T18:15:48.773Z,4.50
2019-04-20T18:18:39.838Z,4.28
2019-04-20T18:21:06.366Z,4.45
2019-04-20T18:23:43.244Z,5.08
2019-04-20T18:26:35.845Z,4.45
2019-04-20T18:29:10.669Z,4.62
2019-04-20T18:31:47.629Z,4.78
2019-04-20T18:34:29.296Z,5.53
2019-04-20T18:37:08.621Z,4.47
2019-04-20T18:39:41.391Z,5.03
2019-04-20T18:42:18.626Z,4.50
2019-04-20T18:45:06.061Z,4.33
2019-04-20T18:47:39.382Z,4.62
2019-04-20T18:50:04.419Z,4.92
2019-04-20T18:52:27.820Z,5.40
2019-04-20T18:54:59.849Z,5.30
2019-04-20T18:57:33.223Z,5.12
2019-04-20T19:00:07.832Z,5.22
2019-04-20T19:02:46.845Z,5.30
2019-04-20T19:05:15.711Z,5.53
2019-04-20T19:07:57.756Z,5.47
2019-04-20T19:10:27.400Z,6.42
2019-04-20T19:13:04.316Z,6.55
2019-04-20T19:15:57.762Z,6.00
2019-04-20T19:18:49.339Z,5.47
2019-04-20T19:21:11.033Z,6.62
2019-04-20T19:23:54.931Z,8.08
2019-04-20T19:26:21.438Z,6.40
2019-04-20T19:28:56.425Z,6.65
2019-04-20T19:31:42.557Z,5.78
2019-04-20T19:34:22.741Z,5.60
2019-04-20T19:36:42.457Z,5.42
2019-04-20T19:39:28.691Z,5.30
2019-04-20T19:41:54.047Z,5.33
2019-04-20T19:44:27.270Z,5.03
2019-04-20T19:47:10.918Z,5.10
2019-04-20T19:49:37.077Z,4.77
2019-04-20T19:52:30.630Z,4.80
2019-04-20T19:54:54.919Z,5.77
2019-04-20T19:57:28.524Z,5.43
2019-04-20T19:59:48.367Z,5.23
2019-04-20T20:02:17.939Z,5.00
2019-04-20T20:04:57.291Z,5.20
2019-04-20T20:07:31.056Z,4.90
2019-04-20T20:10:02.112Z,5.50
2019-04-20T20:12:33.580Z,5.23
2019-04-20T20:15:13.831Z,5.20
2019-04-20T20:18:00.348Z,5.70
2019-04-20T20:20:35.607Z,5.80
2019-04-20T20:22:51.924Z,5.67
2019-04-20T20:25:24.605Z,5.93
2019-04-20T20:28:03.504Z,6.10
2019-04-20T20:30:35.322Z,5.83
2019-04-20T20:33:23.836Z,5.23
2019-04-20T20:35:48.144Z,5.47
2019-04-20T20:38:19.183Z,5.27
2019-04-20T20:41:00.071Z,4.70
2019-04-20T20:43:34.291Z,5.50
2019-04-20T20:46:09.403Z,5.63
2019-04-20T20:48:54.248Z,5.73
2019-04-20T20:51:13.583Z,6.30
2019-04-20T20:53:49.853Z,6.10
2019-04-20T20:56:18.512Z,5.57
2019-04-20T20:58:53.840Z,5.63
2019-04-20T21:01:23.761Z,5.67
2019-04-20T21:03:53.068Z,6.27
2019-04-20T21:06:26.267Z,5.77
2019-04-20T21:09:00.288Z,6.00
2019-04-20T21:11:35.980Z,6.27
2019-04-20T21:14:06.897Z,6.17
2019-04-20T21:16:48.265Z,6.63
2019-04-20T21:19:24.579Z,6.43
2019-04-20T21:21:55.678Z,7.10
2019-04-20T21:24:25.357Z,6.60
2019-04-20T21:27:03.082Z,7.33
2019-04-20T21:29:37.811Z,6.67
2019-04-20T21:32:12.095Z,6.73
2019-04-20T21:34:42.379Z,6.10
2019-04-20T21:37:18.877Z,6.40
2019-04-20T21:39:54.116Z,7.20
2019-04-20T21:42:25.236Z,7.20
2019-04-20T21:45:05.595Z,7.90
2019-04-20T21:47:36.143Z,7.27
2019-04-20T21:50:25.374Z,6.90
2019-04-20T21:52:45.137Z,7.53
2019-04-20T21:55:14.303Z,7.13
2019-04-20T21:57:51.538Z,6.73
2019-04-20T22:00:42.514Z,7.03
2019-04-20T22:03:13.717Z,6.80
2019-04-20T22:05:46.489Z,7.17
2019-04-20T22:08:19.733Z,7.13
2019-04-20T22:10:53.388Z,7.63
2019-04-20T22:13:32.585Z,7.00
2019-04-20T22:16:05.463Z,7.40
2019-04-20T22:18:47.386Z,7.60
2019-04-20T22:21:20.830Z,7.30
2019-04-20T22:23:54.370Z,7.97
2019-04-20T22:26:26.341Z,7.80
2019-04-20T22:28:52.168Z,7.33
2019-04-20T22:31:26.396Z,8.23
2019-04-20T22:34:02.339Z,8.10
2019-04-20T22:36:38.624Z,8.23
2019-04-20T22:39:24.485Z,7.40
2019-04-20T22:41:59.232Z,7.87
2019-04-20T22:44:30.543Z,6.77
2019-04-20T22:47:05.503Z,8.17
2019-04-20T22:49:49.398Z,7.83
2019-04-20T22:52:26.215Z,8.47
2019-04-20T22:55:01.380Z,7.90
2019-04-20T22:57:31.808Z,8.17
2019-04-20T22:59:59.427Z,8.27
2019-04-20T23:02:28.343Z,8.23
2019-04-20T23:05:00.842Z,7.97
2019-04-20T23:07:32.829Z,8.63
2019-04-20T23:10:07.171Z,8.23
2019-04-20T23:12:40.216Z,8.07
2019-04-20T23:15:14.432Z,8.87
2019-04-20T23:17:49.157Z,8.73
2019-04-20T23:20:26.670Z,7.87
2019-04-20T23:22:54.794Z,8.63
2019-04-20T23:25:29.294Z,8.27
2019-04-20T23:28:07.919Z,8.60
2019-04-20T23:30:39.430Z,8.50
2019-04-20T23:33:11.806Z,8.90
2019-04-20T23:35:49.823Z,9.30
2019-04-20T23:38:22.554Z,8.07
2019-04-20T23:40:53.219Z,8.20
2019-04-20T23:43:33.313Z,8.53
2019-04-20T23:46:26.488Z,8.10
2019-04-20T23:49:50.600Z,8.20
2019-04-20T23:52:32.333Z,7.50
2019-04-20T23:54:50.225Z,8.00
2019-04-20T23:57:13.539Z,7.80
2019-04-20T23:59:47.001Z,8.03
